Time;durP1;ratioP1;P1;durP2;ratioP2;P2;SDS_P1;SDS_P2;PMS_P1;PMS_P2;Temp;Humidity;BMP_temperature;BMP_pressure;BME280_temperature;BME280_humidity;BME280_pressure;Samples;Min_cycle;Max_cycle;Signal;HPM_P1;HPM_P2
2022/12/18 00:00:04;;;;;;;16.17;6.35;;;0.60;99.90;;;;;;5085515;28;20047;-59
2022/12/18 00:02:40;;;;;;;8.80;4.18;;;0.70;99.90;;;;;;5072954;28;20060;-61
2022/12/18 00:05:08;;;;;;;13.88;6.03;;;0.60;99.90;;;;;;5085472;28;20063;-60
2022/12/18 00:07:36;;;;;;;13.20;5.55;;;0.60;99.90;;;;;;5081474;28;20051;-60
2022/12/18 00:10:05;;;;;;;12.02;5.80;;;0.60;99.90;;;;;;5081447;28;20377;-61
2022/12/18 00:12:32;;;;;;;11.45;5.68;;;0.60;99.90;;;;;;5086278;28;20399;-60
2022/12/18 00:15:00;;;;;;;13.50;5.85;;;0.60;99.90;;;;;;5085381;28;20502;-61
2022/12/18 00:17:27;;;;;;;11.90;6.03;;;0.60;99.90;;;;;;5082039;28;20075;-62
2022/12/18 00:19:55;;;;;;;13.00;4.85;;;0.50;99.90;;;;;;5083583;28;20044;-60
2022/12/18 00:22:23;;;;;;;14.90;5.35;;;0.50;99.90;;;;;;5080667;28;20047;-60
2022/12/18 00:24:51;;;;;;;12.70;5.28;;;0.50;99.90;;;;;;5084299;28;20048;-61
2022/12/18 00:27:18;;;;;;;9.68;5.03;;;0.40;99.90;;;;;;5075689;28;20044;-61
2022/12/18 00:29:48;;;;;;;11.95;4.78;;;0.40;99.90;;;;;;5085341;28;20044;-60
2022/12/18 00:32:15;;;;;;;10.55;4.22;;;0.40;99.90;;;;;;5083774;28;20044;-61
2022/12/18 00:34:43;;;;;;;11.38;4.68;;;0.40;99.90;;;;;;5083313;28;20041;-61
2022/12/18 00:37:11;;;;;;;11.93;4.53;;;0.30;99.90;;;;;;5095098;28;20053;-61
2022/12/18 00:39:48;;;;;;;14.02;4.60;;;0.30;99.90;;;;;;5082665;28;20052;-62
2022/12/18 00:45:02;;;;;;;8.80;4.53;;;0.20;99.90;;;;;;5081197;28;20052;-61
2022/12/18 00:47:39;;;;;;;7.78;4.20;;;0.20;99.90;;;;;;5082308;28;20052;-60
2022/12/18 00:50:07;;;;;;;9.40;4.47;;;0.10;99.90;;;;;;5063432;28;20028;-62
2022/12/18 00:52:35;;;;;;;9.32;4.65;;;0.10;99.90;;;;;;5085339;28;20052;-62
2022/12/18 00:55:03;;;;;;;9.70;4.95;;;0.00;99.90;;;;;;5086548;28;20502;-59
2022/12/18 00:57:33;;;;;;;11.20;5.10;;;-0.10;99.90;;;;;;5086500;28;20036;-61
2022/12/18 01:00:01;;;;;;;10.32;4.50;;;-0.10;99.90;;;;;;5077502;28;20052;-61
2022/12/18 01:02:29;;;;;;;9.68;5.00;;;-0.20;99.90;;;;;;5083450;28;20055;-61
2022/12/18 01:04:57;;;;;;;12.40;5.00;;;-0.20;99.90;;;;;;5082154;28;20052;-60
2022/12/18 01:07:25;;;;;;;10.30;4.70;;;-0.30;99.90;;;;;;5082871;28;20047;-61
2022/12/18 01:09:53;;;;;;;9.20;4.85;;;-0.30;99.90;;;;;;5086544;28;20044;-62
2022/12/18 01:12:24;;;;;;;6.75;4.20;;;-0.40;99.90;;;;;;5087988;28;20487;-60
2022/12/18 01:14:53;;;;;;;10.48;4.97;;;-0.40;99.90;;;;;;5089044;28;20063;-60
2022/12/18 01:17:21;;;;;;;9.05;4.88;;;-0.50;99.90;;;;;;5088888;28;20051;-61
2022/12/18 01:19:49;;;;;;;10.38;4.75;;;-0.50;99.90;;;;;;5081229;28;20060;-60
2022/12/18 01:22:17;;;;;;;8.65;4.03;;;-0.50;99.90;;;;;;5087267;28;20066;-60
2022/12/18 01:24:45;;;;;;;9.30;4.25;;;-0.50;99.90;;;;;;5089902;28;20044;-59
2022/12/18 01:27:13;;;;;;;14.73;4.25;;;-0.60;99.90;;;;;;5088235;28;20040;-60
2022/12/18 01:29:40;;;;;;;6.85;4.20;;;-0.60;99.90;;;;;;5087300;28;20044;-60
2022/12/18 02:27:58;;;;;;;12.75;6.25;;;-1.00;99.90;;;;;;5080607;28;20051;-59
2022/12/18 02:30:31;;;;;;;13.48;6.43;;;-1.00;99.90;;;;;;5086590;28;20066;-60
2022/12/18 02:33:02;;;;;;;13.60;6.57;;;-1.00;99.90;;;;;;5085809;28;20537;-61
2022/12/18 02:35:30;;;;;;;15.65;7.72;;;-1.00;99.90;;;;;;5089826;28;20044;-59
2022/12/18 02:38:01;;;;;;;13.30;6.18;;;-1.00;99.90;;;;;;5090026;28;20040;-60
2022/12/18 02:40:31;;;;;;;14.23;6.70;;;-1.00;99.90;;;;;;5091385;28;20388;-60
2022/12/18 02:43:10;;;;;;;13.68;6.18;;;-1.00;99.90;;;;;;5088028;28;20051;-61
2022/12/18 02:46:12;;;;;;;17.15;7.32;;;-1.00;99.90;;;;;;5088188;28;20051;-60
2022/12/18 02:48:40;;;;;;;14.43;6.65;;;-1.00;99.90;;;;;;5079016;28;20043;-58
2022/12/18 02:51:29;;;;;;;18.00;7.25;;;-1.00;99.90;;;;;;5089317;28;20059;-59
2022/12/18 02:54:08;;;;;;;18.58;7.38;;;-1.00;99.90;;;;;;5090026;28;20067;-61
2022/12/18 02:56:50;;;;;;;18.88;8.38;;;-1.00;99.90;;;;;;5090413;28;20047;-61
2022/12/18 02:59:29;;;;;;;17.38;7.28;;;-0.90;99.90;;;;;;5088670;28;20046;-61
2022/12/18 03:02:26;;;;;;;14.75;7.28;;;-0.90;99.90;;;;;;5088427;28;20047;-60
2022/12/18 03:05:03;;;;;;;16.35;7.50;;;-0.90;99.90;;;;;;5089065;28;20070;-59
2022/12/18 03:07:39;;;;;;;18.02;8.02;;;-0.90;99.90;;;;;;5090467;28;20048;-59
2022/12/18 03:10:16;;;;;;;15.82;7.90;;;-0.90;99.90;;;;;;5090473;28;20047;-61
2022/12/18 03:13:17;;;;;;;17.83;7.32;;;-0.90;99.90;;;;;;5082648;28;20041;-60
2022/12/18 03:15:48;;;;;;;12.77;7.53;;;-0.90;99.90;;;;;;5088737;28;20036;-60
2022/12/18 03:18:28;;;;;;;14.07;7.10;;;-0.90;99.90;;;;;;5089439;28;20498;-59
2022/12/18 03:21:00;;;;;;;13.95;6.85;;;-0.90;99.90;;;;;;5090245;28;20047;-60
2022/12/18 03:23:34;;;;;;;16.38;7.70;;;-0.80;99.90;;;;;;5078165;28;20468;-61
2022/12/18 03:26:10;;;;;;;16.30;7.28;;;-0.80;99.90;;;;;;5089689;28;20495;-61
2022/12/18 03:28:51;;;;;;;17.38;7.13;;;-0.80;99.90;;;;;;5089605;28;20032;-60
2022/12/18 03:31:27;;;;;;;16.73;7.20;;;-0.80;99.90;;;;;;5081442;28;20035;-60
2022/12/18 03:33:59;;;;;;;15.43;7.30;;;-0.80;99.90;;;;;;5090193;28;20059;-60
2022/12/18 03:36:37;;;;;;;21.08;7.72;;;-0.80;99.90;;;;;;5093282;28;20387;-60
2022/12/18 03:39:05;;;;;;;17.98;7.88;;;-0.80;99.90;;;;;;5093551;28;20040;-59
2022/12/18 03:41:55;;;;;;;15.10;7.68;;;-0.70;99.90;;;;;;5093367;28;20040;-60
2022/12/18 03:44:38;;;;;;;;;;;-0.70;99.90;;;;;;5092455;28;20036;-60
2022/12/18 03:47:13;;;;;;;15.95;8.35;;;-0.70;99.90;;;;;;5091263;28;19919;-60
2022/12/18 03:50:14;;;;;;;17.85;9.10;;;-0.70;99.90;;;;;;5091269;28;20035;-59
2022/12/18 03:52:59;;;;;;;20.85;7.78;;;-0.70;99.90;;;;;;5091757;28;20044;-59
2022/12/18 03:55:33;;;;;;;16.00;7.85;;;-0.70;99.90;;;;;;5093989;28;20079;-59
2022/12/18 03:58:05;;;;;;;26.27;8.30;;;-0.70;99.90;;;;;;5095096;28;20036;-59
2022/12/18 04:00:49;;;;;;;17.73;8.57;;;-0.70;99.90;;;;;;5083821;28;20066;-59
2022/12/18 04:03:19;;;;;;;14.15;7.65;;;-0.70;99.90;;;;;;5074810;28;20047;-60
2022/12/18 04:05:55;;;;;;;19.15;8.93;;;-0.70;99.90;;;;;;5093144;28;20040;-59
2022/12/18 04:08:27;;;;;;;18.25;8.77;;;-0.70;99.90;;;;;;5092961;28;20500;-59
2022/12/18 04:11:03;;;;;;;17.73;8.43;;;-0.70;99.90;;;;;;5093183;28;20039;-60
2022/12/18 04:13:36;;;;;;;27.92;11.52;;;-0.90;99.90;;;;;;5073294;28;20047;-59
2022/12/18 04:16:09;;;;;;;24.63;9.70;;;-0.70;99.90;;;;;;5091756;28;20520;-60
2022/12/18 04:18:40;;;;;;;24.30;9.85;;;-0.70;99.90;;;;;;5092331;28;20047;-60
2022/12/18 04:21:09;;;;;;;15.40;9.20;;;-0.70;99.90;;;;;;5092704;28;20044;-59
2022/12/18 04:23:37;;;;;;;17.30;9.73;;;-0.80;99.90;;;;;;5072403;28;20059;-60
2022/12/18 04:26:06;;;;;;;27.80;11.25;;;-0.70;99.90;;;;;;5082199;28;20045;-60
2022/12/18 04:28:50;;;;;;;19.45;9.60;;;-0.70;99.90;;;;;;5058537;28;20044;-59
2022/12/18 04:31:21;;;;;;;23.13;9.82;;;-0.70;99.90;;;;;;5074338;28;20526;-60
2022/12/18 04:33:50;;;;;;;22.70;10.02;;;-0.70;99.90;;;;;;5074699;28;20071;-60
2022/12/18 04:36:18;;;;;;;24.67;10.90;;;-0.70;99.90;;;;;;5090391;28;20036;-60
2022/12/18 04:38:47;;;;;;;26.70;10.43;;;-0.70;99.90;;;;;;5091968;28;20052;-60
2022/12/18 04:41:18;;;;;;;24.00;10.73;;;-0.70;99.90;;;;;;5090456;28;20052;-59
2022/12/18 04:43:48;;;;;;;27.55;10.98;;;-0.60;99.90;;;;;;5091599;28;20040;-59
2022/12/18 04:46:16;;;;;;;22.65;10.98;;;-0.70;99.90;;;;;;5092127;28;20060;-59
2022/12/18 04:48:46;;;;;;;26.85;10.75;;;-0.60;99.90;;;;;;5092444;28;20044;-59
2022/12/18 04:51:14;;;;;;;21.02;9.48;;;-0.60;99.90;;;;;;5092328;28;20051;-60
2022/12/18 04:53:42;;;;;;;25.25;11.07;;;-0.60;99.90;;;;;;5092809;28;20079;-60
2022/12/18 04:56:13;;;;;;;20.33;9.63;;;-0.70;99.90;;;;;;5092763;28;20040;-61
2022/12/18 04:58:42;;;;;;;26.85;11.63;;;-0.60;99.90;;;;;;5082438;28;20054;-60
2022/12/18 05:01:11;;;;;;;24.40;11.35;;;-0.60;99.90;;;;;;5093414;28;20078;-59
2022/12/18 05:03:39;;;;;;;;;;;-0.60;99.90;;;;;;5092893;28;20047;-59
2022/12/18 05:06:08;;;;;;;29.40;13.18;;;-0.60;99.90;;;;;;5092175;28;19919;-60
2022/12/18 05:08:38;;;;;;;38.78;15.25;;;-0.60;99.90;;;;;;5092874;28;20059;-59
2022/12/18 05:11:12;;;;;;;32.42;13.90;;;-0.60;99.90;;;;;;5090640;28;20055;-59
2022/12/18 05:13:39;;;;;;;33.40;13.85;;;-0.60;99.90;;;;;;5092690;28;20039;-61
2022/12/18 05:16:08;;;;;;;34.28;13.25;;;-0.60;99.90;;;;;;5090605;28;20036;-61
2022/12/18 05:18:36;;;;;;;32.58;14.23;;;-0.60;99.90;;;;;;5090925;28;20387;-60
2022/12/18 05:21:05;;;;;;;37.03;14.05;;;-0.60;99.90;;;;;;5093498;28;20043;-60
2022/12/18 05:23:32;;;;;;;28.02;13.27;;;-0.60;99.90;;;;;;5092549;28;20403;-59
2022/12/18 05:26:04;;;;;;;38.42;14.60;;;-0.60;99.90;;;;;;5092076;28;20055;-61
2022/12/18 05:28:34;;;;;;;42.05;15.00;;;-0.70;99.90;;;;;;5093499;28;20047;-58
2022/12/18 05:31:02;;;;;;;;;;;-0.70;99.90;;;;;;5093099;28;20506;-59
2022/12/18 05:33:33;;;;;;;37.83;15.00;;;-0.70;99.90;;;;;;5090863;28;20367;-60
2022/12/18 05:36:03;;;;;;;31.02;14.98;;;-0.70;99.90;;;;;;5093075;28;20059;-60
2022/12/18 05:38:33;;;;;;;45.38;15.27;;;-0.70;99.90;;;;;;5091882;28;20506;-61
2022/12/18 05:41:00;;;;;;;;;;;-0.70;99.90;;;;;;5092600;28;20052;-61
2022/12/18 05:43:28;;;;;;;47.53;16.45;;;-0.70;99.90;;;;;;5091479;28;19920;-60
2022/12/18 05:45:57;;;;;;;38.63;15.18;;;-0.60;99.90;;;;;;5093183;28;20044;-61
2022/12/18 05:48:25;;;;;;;31.57;11.53;;;-0.60;99.90;;;;;;5076907;28;20044;-61
2022/12/18 05:50:52;;;;;;;43.60;15.95;;;-0.60;99.90;;;;;;5079088;28;20040;-61
2022/12/18 05:53:20;;;;;;;41.15;16.17;;;-0.50;99.90;;;;;;5088411;28;20056;-60
2022/12/18 05:55:48;;;;;;;41.40;14.82;;;-0.50;99.90;;;;;;5087131;28;20059;-61
2022/12/18 05:58:16;;;;;;;38.63;14.25;;;-0.40;99.90;;;;;;5080316;28;20041;-60
2022/12/18 06:00:45;;;;;;;46.60;16.17;;;-0.50;99.90;;;;;;5067840;28;20056;-59
2022/12/18 06:03:13;;;;;;;40.47;16.65;;;-0.30;99.90;;;;;;5073143;28;20032;-60
2022/12/18 06:05:43;;;;;;;37.30;15.35;;;-0.30;99.90;;;;;;5083160;28;20058;-60
2022/12/18 06:08:12;;;;;;;36.38;14.50;;;-0.30;99.90;;;;;;5075495;28;20052;-60
2022/12/18 06:10:41;;;;;;;46.72;16.25;;;-0.20;99.90;;;;;;5067665;28;20052;-60
2022/12/18 06:13:09;;;;;;;44.95;17.30;;;-0.30;99.90;;;;;;5081974;28;20039;-60
2022/12/18 06:15:37;;;;;;;46.72;16.85;;;-0.20;99.90;;;;;;5085802;28;20070;-61
2022/12/18 06:18:05;;;;;;;42.88;14.88;;;-0.20;99.90;;;;;;5088804;28;20036;-61
2022/12/18 06:20:36;;;;;;;39.80;17.40;;;-0.20;99.90;;;;;;5088682;28;20055;-61
2022/12/18 06:23:04;;;;;;;39.55;15.93;;;-0.20;99.90;;;;;;5082060;28;20048;-60
2022/12/18 06:25:32;;;;;;;42.15;17.17;;;-0.20;99.90;;;;;;5085554;28;20567;-59
2022/12/18 06:28:00;;;;;;;34.92;14.73;;;-0.20;99.90;;;;;;5083539;28;20388;-61
2022/12/18 06:30:28;;;;;;;34.83;14.00;;;-0.10;99.90;;;;;;5081445;28;20044;-61
2022/12/18 06:32:56;;;;;;;40.30;16.63;;;-0.10;99.90;;;;;;5084207;28;20479;-60
2022/12/18 06:35:26;;;;;;;47.25;15.90;;;-0.10;99.90;;;;;;5083356;28;20480;-60
2022/12/18 06:37:55;;;;;;;46.97;16.00;;;-0.10;99.90;;;;;;5078875;28;20047;-61
2022/12/18 06:40:26;;;;;;;45.63;17.40;;;-0.10;99.90;;;;;;5087018;28;20048;-60
2022/12/18 06:43:03;;;;;;;44.83;17.10;;;-0.10;99.90;;;;;;5082872;28;20055;-61
2022/12/18 06:45:31;;;;;;;44.80;16.55;;;-0.10;99.90;;;;;;5079381;28;20048;-61
2022/12/18 06:48:08;;;;;;;47.40;16.20;;;-0.10;99.90;;;;;;5083569;28;20044;-61
2022/12/18 06:50:41;;;;;;;;;;;0.00;99.90;;;;;;5065317;28;20051;-62
2022/12/18 06:53:18;;;;;;;49.60;17.52;;;0.00;99.90;;;;;;5083789;28;19919;-60
2022/12/18 06:55:46;;;;;;;43.67;17.05;;;0.00;99.90;;;;;;5085777;28;20036;-60
2022/12/18 06:58:14;;;;;;;46.05;17.42;;;-0.10;99.90;;;;;;5086822;28;20052;-60
2022/12/18 07:00:41;;;;;;;49.03;19.00;;;0.00;99.90;;;;;;5082713;28;20364;-61
2022/12/18 07:03:13;;;;;;;50.00;18.45;;;0.00;99.90;;;;;;5082127;28;20062;-60
2022/12/18 07:05:41;;;;;;;47.13;17.48;;;0.00;99.90;;;;;;5082468;28;20040;-60
2022/12/18 07:08:08;;;;;;;49.70;17.52;;;0.00;99.90;;;;;;5079345;28;20040;-61
2022/12/18 07:10:43;;;;;;;50.47;17.30;;;-0.10;99.90;;;;;;5085017;28;20044;-60
2022/12/18 07:13:17;;;;;;;41.13;16.10;;;-0.10;99.90;;;;;;5082888;28;20055;-59
2022/12/18 07:15:45;;;;;;;50.38;16.40;;;-0.10;99.90;;;;;;5083683;28;20040;-60
2022/12/18 07:18:13;;;;;;;51.40;17.75;;;-0.10;99.90;;;;;;5085352;28;20055;-61
2022/12/18 07:20:41;;;;;;;47.38;17.08;;;-0.10;99.90;;;;;;5086211;28;20044;-60
2022/12/18 07:23:08;;;;;;;40.30;15.73;;;0.00;99.90;;;;;;5080964;28;20479;-60
2022/12/18 07:25:36;;;;;;;44.40;16.17;;;-0.10;99.90;;;;;;5086936;28;20082;-60
2022/12/18 07:28:05;;;;;;;51.08;18.20;;;0.00;99.90;;;;;;5085740;28;20541;-60
2022/12/18 07:30:33;;;;;;;47.20;17.48;;;0.00;99.90;;;;;;5086194;28;20376;-59
2022/12/18 07:33:01;;;;;;;52.53;19.67;;;0.00;99.90;;;;;;5080607;28;20044;-60
2022/12/18 07:35:29;;;;;;;52.75;18.08;;;0.00;99.90;;;;;;5086205;28;20043;-60
2022/12/18 07:37:57;;;;;;;46.78;19.10;;;0.00;99.90;;;;;;5083902;28;20044;-59
2022/12/18 07:40:24;;;;;;;52.00;19.80;;;0.00;99.90;;;;;;5084659;28;20040;-60
2022/12/18 07:42:52;;;;;;;49.90;18.80;;;0.00;99.90;;;;;;5083771;28;20064;-60
2022/12/18 07:45:20;;;;;;;49.13;18.60;;;0.00;99.90;;;;;;5082403;28;20055;-60
2022/12/18 07:47:49;;;;;;;47.65;18.05;;;0.00;99.90;;;;;;5087623;28;20044;-60
2022/12/18 07:50:17;;;;;;;39.25;14.75;;;0.00;99.90;;;;;;5084950;28;20036;-60
2022/12/18 07:52:45;;;;;;;44.50;16.27;;;0.00;99.90;;;;;;5086326;28;20407;-61
2022/12/18 07:55:13;;;;;;;43.63;16.60;;;0.00;99.90;;;;;;5086759;28;20504;-61
2022/12/18 07:57:40;;;;;;;48.42;18.55;;;0.00;99.90;;;;;;5085364;28;20451;-59
2022/12/18 08:00:18;;;;;;;46.58;17.83;;;0.00;99.90;;;;;;5079753;28;20750;-60
2022/12/18 08:02:48;;;;;;;42.40;16.42;;;0.00;99.90;;;;;;5081918;28;20415;-60
2022/12/18 08:05:16;;;;;;;55.78;19.83;;;0.00;99.90;;;;;;5081573;28;20051;-61
2022/12/18 08:07:44;;;;;;;47.10;18.52;;;0.00;99.90;;;;;;5083433;28;20048;-62
2022/12/18 08:10:13;;;;;;;46.95;17.25;;;-0.10;99.90;;;;;;5087690;28;20044;-61
2022/12/18 08:12:40;;;;;;;46.60;17.85;;;0.00;99.90;;;;;;5087350;28;20098;-61
2022/12/18 08:15:09;;;;;;;42.70;17.15;;;0.00;99.90;;;;;;5084261;28;20048;-61
2022/12/18 08:17:37;;;;;;;47.15;19.17;;;0.00;99.90;;;;;;5087084;28;20044;-60
2022/12/18 08:20:04;;;;;;;51.53;18.00;;;0.00;99.90;;;;;;5087604;28;20066;-61
2022/12/18 08:22:35;;;;;;;52.93;19.97;;;0.00;99.90;;;;;;5084765;28;20357;-59
2022/12/18 08:25:03;;;;;;;50.90;18.48;;;0.10;99.90;;;;;;5088060;28;20048;-60
2022/12/18 08:27:31;;;;;;;49.83;18.93;;;0.00;99.90;;;;;;5090377;28;20048;-60
2022/12/18 08:29:59;;;;;;;51.22;17.83;;;0.00;99.90;;;;;;5085921;28;20048;-60
2022/12/18 08:32:28;;;;;;;49.90;19.23;;;0.10;99.90;;;;;;5089039;28;20513;-61
2022/12/18 08:34:56;;;;;;;43.80;16.50;;;0.10;99.90;;;;;;5089463;28;20044;-60
2022/12/18 08:37:24;;;;;;;46.10;18.40;;;0.10;99.90;;;;;;5089073;28;20059;-59
2022/12/18 08:39:51;;;;;;;56.63;19.42;;;0.10;99.90;;;;;;5089019;28;20044;-61
2022/12/18 08:45:06;;;;;;;53.22;19.77;;;0.10;99.90;;;;;;5089337;28;20203;-60
2022/12/18 08:47:34;;;;;;;53.40;18.90;;;0.10;99.90;;;;;;5082882;28;20036;-60
2022/12/18 08:50:03;;;;;;;54.45;19.13;;;0.10;99.90;;;;;;5086622;28;20040;-60
2022/12/18 08:52:32;;;;;;;46.47;16.77;;;0.00;99.90;;;;;;5087531;28;20060;-61
2022/12/18 08:55:00;;;;;;;54.95;18.80;;;0.10;99.90;;;;;;5090355;28;20044;-62
2022/12/18 08:57:27;;;;;;;47.85;18.70;;;0.10;99.90;;;;;;5087129;28;20051;-61
2022/12/18 09:00:01;;;;;;;51.00;17.92;;;0.10;99.90;;;;;;5077481;28;20546;-61
2022/12/18 09:02:29;;;;;;;62.75;18.05;;;0.00;99.90;;;;;;5087414;28;20070;-63
2022/12/18 09:04:57;;;;;;;56.38;19.23;;;0.10;99.90;;;;;;5088323;28;20502;-61
2022/12/18 09:07:28;;;;;;;45.05;17.75;;;0.10;99.90;;;;;;5088369;28;20522;-60
2022/12/18 09:09:56;;;;;;;56.55;20.73;;;0.10;99.90;;;;;;5083372;28;20052;-60
2022/12/18 09:12:25;;;;;;;56.78;18.52;;;0.00;99.90;;;;;;5085461;28;20387;-61
2022/12/18 09:14:52;;;;;;;59.70;20.63;;;0.10;99.90;;;;;;5088022;28;20593;-62
2022/12/18 09:17:31;;;;;;;48.60;18.00;;;0.10;99.90;;;;;;5089559;28;20059;-61
2022/12/18 09:20:01;;;;;;;50.85;18.42;;;0.10;99.90;;;;;;5087242;28;20048;-61
2022/12/18 09:22:29;;;;;;;58.05;20.45;;;0.10;99.90;;;;;;5084904;28;20048;-60
2022/12/18 09:24:57;;;;;;;51.75;19.08;;;0.10;99.90;;;;;;5079189;28;20059;-61
2022/12/18 09:27:24;;;;;;;54.53;17.30;;;0.10;99.90;;;;;;5087835;28;20044;-60
2022/12/18 09:29:52;;;;;;;43.92;15.32;;;0.20;99.90;;;;;;5085301;28;20044;-61
2022/12/18 09:32:21;;;;;;;49.40;17.40;;;0.20;99.90;;;;;;5084759;28;20395;-60
2022/12/18 09:34:49;;;;;;;47.28;16.83;;;0.20;99.90;;;;;;5086724;28;20040;-60
2022/12/18 09:37:17;;;;;;;50.38;15.85;;;0.20;99.90;;;;;;5086013;28;20395;-61
2022/12/18 09:39:45;;;;;;;50.40;17.23;;;0.20;99.90;;;;;;5081286;28;20510;-61
2022/12/18 09:42:21;;;;;;;49.22;17.33;;;0.30;99.90;;;;;;5071223;28;20516;-59
2022/12/18 09:44:53;;;;;;;50.55;15.95;;;0.30;99.90;;;;;;5084202;28;20047;-60
2022/12/18 09:47:40;;;;;;;46.70;16.70;;;0.30;99.90;;;;;;5085385;28;20221;-61
2022/12/18 09:50:31;;;;;;;48.97;16.90;;;0.40;99.90;;;;;;5081399;28;20051;-60
2022/12/18 09:53:06;;;;;;;37.13;14.95;;;0.50;99.90;;;;;;5076441;28;20039;-61
2022/12/18 09:55:39;;;;;;;42.42;15.30;;;0.50;99.90;;;;;;5085831;28;20055;-59
2022/12/18 09:58:19;;;;;;;48.78;16.17;;;0.50;99.90;;;;;;5083371;28;20098;-61
2022/12/18 10:00:47;;;;;;;38.58;14.43;;;0.50;99.90;;;;;;5083254;28;20052;-60
2022/12/18 10:03:15;;;;;;;44.83;15.98;;;0.50;99.90;;;;;;5076260;28;20056;-61
2022/12/18 10:06:02;;;;;;;34.42;12.38;;;0.60;99.90;;;;;;5083781;28;20596;-60
2022/12/18 10:08:52;;;;;;;31.88;11.82;;;0.60;99.90;;;;;;5084412;28;20058;-60
2022/12/18 10:12:04;;;;;;;44.63;17.02;;;0.60;99.90;;;;;;5069257;28;20541;-60
2022/12/18 10:14:42;;;;;;;43.33;15.90;;;0.60;99.90;;;;;;5073525;28;20040;-60
2022/12/18 10:17:24;;;;;;;40.17;14.85;;;0.50;99.90;;;;;;5087904;28;20396;-60
2022/12/18 10:20:04;;;;;;;32.50;13.05;;;0.50;99.90;;;;;;5085037;28;20491;-61
2022/12/18 10:22:39;;;;;;;34.20;13.70;;;0.50;99.90;;;;;;5081434;28;20055;-60
2022/12/18 10:25:19;;;;;;;39.13;15.38;;;0.50;99.90;;;;;;5073691;28;20040;-61
2022/12/18 10:28:04;;;;;;;42.67;14.18;;;0.50;99.90;;;;;;5087583;28;20048;-61
2022/12/18 10:30:35;;;;;;;38.25;14.23;;;0.60;99.90;;;;;;5077428;28;20032;-60
2022/12/18 10:33:03;;;;;;;44.20;14.40;;;0.60;99.90;;;;;;5082035;28;20051;-59
2022/12/18 10:35:31;;;;;;;39.47;15.05;;;0.60;99.90;;;;;;5082506;28;20036;-60
2022/12/18 10:38:00;;;;;;;33.85;13.18;;;0.60;99.90;;;;;;5082260;28;20044;-61
2022/12/18 10:40:28;;;;;;;33.40;12.52;;;0.60;99.90;;;;;;5081834;28;20495;-60
2022/12/18 10:43:12;;;;;;;28.50;11.82;;;0.70;99.90;;;;;;5081233;28;20048;-60
2022/12/18 10:45:41;;;;;;;32.28;11.57;;;0.70;99.90;;;;;;5077640;28;20041;-60
2022/12/18 10:48:20;;;;;;;34.85;13.40;;;0.70;99.90;;;;;;5078266;28;21081;-59
2022/12/18 10:50:51;;;;;;;28.48;10.82;;;0.80;99.90;;;;;;5074857;28;20048;-60
2022/12/18 10:53:41;;;;;;;35.30;12.52;;;0.80;99.90;;;;;;5082054;28;20032;-60
2022/12/18 10:56:09;;;;;;;30.77;11.50;;;0.80;99.90;;;;;;5081202;28;20052;-60
2022/12/18 10:58:40;;;;;;;32.05;13.23;;;0.90;99.90;;;;;;5071229;28;20048;-61
2022/12/18 11:01:17;;;;;;;31.05;12.40;;;0.90;99.90;;;;;;5079118;28;20044;-61
2022/12/18 11:03:59;;;;;;;37.20;12.18;;;0.90;99.90;;;;;;5081590;28;20534;-61
2022/12/18 11:06:29;;;;;;;31.15;12.05;;;0.90;99.90;;;;;;5083387;28;20626;-61
2022/12/18 11:08:58;;;;;;;25.83;11.52;;;1.00;99.90;;;;;;5083513;28;20051;-60
2022/12/18 11:11:31;;;;;;;25.63;8.52;;;1.00;99.90;;;;;;5078011;28;20048;-60
2022/12/18 11:14:05;;;;;;;32.08;13.38;;;1.00;99.90;;;;;;5078616;28;20051;-60
2022/12/18 11:16:50;;;;;;;32.85;12.65;;;1.20;99.90;;;;;;5078897;28;20039;-60
2022/12/18 11:19:40;;;;;;;28.58;12.02;;;1.20;99.90;;;;;;5075030;28;20036;-60
2022/12/18 11:22:21;;;;;;;31.45;12.18;;;1.20;99.90;;;;;;5075924;28;20040;-60
2022/12/18 11:25:06;;;;;;;26.77;10.68;;;1.30;99.90;;;;;;5069042;28;20052;-60
2022/12/18 11:28:03;;;;;;;30.65;11.98;;;1.40;99.90;;;;;;5078061;28;20045;-60
2022/12/18 11:30:35;;;;;;;33.33;11.68;;;1.40;99.90;;;;;;5083662;28;20048;-60
2022/12/18 11:33:22;;;;;;;26.83;11.45;;;1.40;99.90;;;;;;5079686;28;20043;-60
2022/12/18 11:35:58;;;;;;;31.33;13.02;;;1.40;99.90;;;;;;5075496;28;20060;-60
2022/12/18 11:38:37;;;;;;;27.08;10.85;;;1.40;99.90;;;;;;5072793;28;20045;-61
2022/12/18 11:44:27;;;;;;;28.33;11.55;;;1.40;99.90;;;;;;5077972;28;20070;-61
2022/12/18 11:47:01;;;;;;;18.60;8.60;;;1.40;99.90;;;;;;5069931;28;20040;-60
2022/12/18 11:49:36;;;;;;;24.15;10.80;;;1.50;99.90;;;;;;5071768;28;20045;-61
2022/12/18 11:52:29;;;;;;;29.15;11.32;;;1.40;99.90;;;;;;5076210;28;20391;-59
2022/12/18 11:55:01;;;;;;;25.17;11.10;;;1.40;99.90;;;;;;5071915;28;20052;-61
2022/12/18 11:58:07;;;;;;;30.77;11.50;;;1.40;99.90;;;;;;5072654;28;20056;-62
2022/12/18 12:00:43;;;;;;;27.25;10.95;;;1.40;99.90;;;;;;5077943;28;20055;-59
2022/12/18 12:03:18;;;;;;;23.20;9.57;;;1.40;99.90;;;;;;5074052;28;20632;-61
2022/12/18 12:06:03;;;;;;;26.35;10.35;;;1.40;99.90;;;;;;5085146;28;20499;-60
2022/12/18 12:08:58;;;;;;;29.60;10.68;;;1.40;99.90;;;;;;5070306;28;20040;-61
2022/12/18 12:11:31;;;;;;;28.23;11.25;;;1.40;99.90;;;;;;5070836;28;20041;-61
2022/12/18 12:14:02;;;;;;;34.63;13.52;;;1.40;99.90;;;;;;5082570;28;20499;-60
2022/12/18 12:16:54;;;;;;;36.92;14.07;;;1.40;99.90;;;;;;5080698;28;20546;-60
2022/12/18 12:20:02;;;;;;;39.35;14.35;;;1.40;99.90;;;;;;5080077;28;20045;-61
2022/12/18 12:22:39;;;;;;;29.33;10.15;;;1.40;99.90;;;;;;5049278;28;20106;-60
2022/12/18 12:25:18;;;;;;;26.60;10.40;;;1.50;99.90;;;;;;5081311;28;20599;-60
2022/12/18 12:27:58;;;;;;;27.27;10.87;;;1.40;99.90;;;;;;5085853;28;20364;-60
2022/12/18 12:30:41;;;;;;;31.58;10.15;;;1.40;99.90;;;;;;5078855;28;20044;-60
2022/12/18 12:33:27;;;;;;;33.10;11.68;;;1.40;99.90;;;;;;5081796;28;20036;-62
2022/12/18 12:36:25;;;;;;;32.33;12.35;;;1.40;99.90;;;;;;5077539;28;20047;-62
2022/12/18 12:39:01;;;;;;;26.02;10.63;;;1.40;99.90;;;;;;5081231;28;20044;-62
2022/12/18 12:44:34;;;;;;;30.13;11.57;;;1.40;99.90;;;;;;5084321;28;20052;-60
2022/12/18 12:47:14;;;;;;;34.22;12.40;;;1.40;99.90;;;;;;5081889;28;20072;-61
2022/12/18 12:49:47;;;;;;;30.00;11.27;;;1.40;99.90;;;;;;5074717;28;20111;-61
2022/12/18 12:52:32;;;;;;;27.67;11.70;;;1.40;99.90;;;;;;5081689;28;20040;-60
2022/12/18 12:55:03;;;;;;;30.17;12.18;;;1.30;99.90;;;;;;5077683;28;20044;-61
2022/12/18 12:57:43;;;;;;;23.92;9.02;;;1.40;99.90;;;;;;5084075;28;20511;-60
2022/12/18 13:00:15;;;;;;;24.85;11.57;;;1.30;99.90;;;;;;5080865;28;20044;-60
2022/12/18 13:02:50;;;;;;;24.35;12.20;;;1.30;99.90;;;;;;5083994;28;20040;-60
2022/12/18 13:05:41;;;;;;;30.70;12.88;;;1.30;99.90;;;;;;5077167;28;20071;-60
2022/12/18 13:08:12;;;;;;;30.80;12.45;;;1.40;99.90;;;;;;5086466;28;20048;-61
2022/12/18 13:10:42;;;;;;;35.22;14.32;;;1.40;99.90;;;;;;5076697;28;20482;-60
2022/12/18 13:13:12;;;;;;;25.08;11.85;;;1.30;99.90;;;;;;5076933;28;20407;-61
2022/12/18 13:16:06;;;;;;;27.80;13.18;;;1.30;99.90;;;;;;5079907;28;20044;-60
2022/12/18 13:18:34;;;;;;;33.75;13.35;;;1.40;99.90;;;;;;5079752;28;20404;-60
2022/12/18 13:21:04;;;;;;;31.00;11.88;;;1.40;99.90;;;;;;5083305;28;20098;-60
2022/12/18 13:23:37;;;;;;;34.63;13.95;;;1.30;99.90;;;;;;5078012;28;20039;-60
2022/12/18 13:26:17;;;;;;;26.83;12.25;;;1.40;99.90;;;;;;5073709;28;20051;-59
2022/12/18 13:28:54;;;;;;;28.02;12.25;;;1.30;99.90;;;;;;5076187;28;20044;-60
2022/12/18 13:31:40;;;;;;;38.08;13.30;;;1.30;99.90;;;;;;5080422;28;20032;-61
2022/12/18 13:34:26;;;;;;;34.35;13.05;;;1.30;99.90;;;;;;5086616;28;20387;-60
2022/12/18 13:37:18;;;;;;;30.30;11.93;;;1.30;99.90;;;;;;5075643;28;20052;-60
2022/12/18 13:39:49;;;;;;;38.50;14.05;;;1.30;99.90;;;;;;5071597;28;20048;-60
2022/12/18 13:45:37;;;;;;;31.40;12.85;;;1.30;99.90;;;;;;5071204;28;20040;-62
2022/12/18 13:48:19;;;;;;;29.45;12.90;;;1.30;99.90;;;;;;5072505;28;20044;-59
2022/12/18 13:51:16;;;;;;;26.33;12.02;;;1.30;99.90;;;;;;5088480;28;20044;-60
2022/12/18 13:54:24;;;;;;;31.67;12.20;;;1.30;99.90;;;;;;5067102;28;20057;-61
2022/12/18 13:56:51;;;;;;;22.67;10.98;;;1.30;99.90;;;;;;5074089;28;20044;-60
2022/12/18 13:59:25;;;;;;;35.13;14.43;;;1.30;99.90;;;;;;5082603;28;20388;-61
2022/12/18 14:02:21;;;;;;;29.10;13.45;;;1.30;99.90;;;;;;5085597;28;20059;-62
2022/12/18 14:04:52;;;;;;;32.45;13.07;;;1.30;99.90;;;;;;5078796;28;20050;-61
2022/12/18 14:07:28;;;;;;;32.28;12.65;;;1.30;99.90;;;;;;5081473;28;20044;-62
2022/12/18 14:10:15;;;;;;;39.33;15.43;;;1.30;99.90;;;;;;5086889;28;20047;-60
2022/12/18 14:13:06;;;;;;;32.30;13.00;;;1.40;99.90;;;;;;5084186;28;20054;-60
2022/12/18 14:15:43;;;;;;;39.45;14.82;;;1.30;99.90;;;;;;5076042;28;20040;-60
2022/12/18 14:18:38;;;;;;;34.13;13.23;;;1.40;99.90;;;;;;5074004;28;20036;-61
2022/12/18 14:21:15;;;;;;;33.50;14.18;;;1.40;99.90;;;;;;5077598;28;20055;-63